createdAt,value
2023-02-08T00:01:44.507Z,-5.71
2023-02-08T00:04:10.958Z,-5.77
2023-02-08T00:06:37.414Z,-5.79
2023-02-08T00:09:04.062Z,-6.00
2023-02-08T00:11:30.526Z,-5.95
2023-02-08T00:13:56.966Z,-5.95
2023-02-08T00:16:23.599Z,-5.91
2023-02-08T00:18:50.056Z,-5.92
2023-02-08T00:21:17.994Z,-6.10
2023-02-08T00:23:44.954Z,-6.02
2023-02-08T00:26:12.208Z,-6.12
2023-02-08T00:28:41.001Z,-6.06
2023-02-08T00:31:07.918Z,-6.04
2023-02-08T00:33:34.648Z,-6.06
2023-02-08T00:36:02.376Z,-6.02
2023-02-08T00:38:29.472Z,-6.03
2023-02-08T00:40:55.974Z,-5.97
2023-02-08T00:43:24.064Z,-5.87
2023-02-08T00:45:57.293Z,-5.76
2023-02-08T00:48:25.426Z,-5.95
2023-02-08T00:51:04.473Z,-6.01
2023-02-08T00:53:31.222Z,-6.21
2023-02-08T00:55:57.840Z,-6.13
2023-02-08T00:58:25.163Z,-6.14
2023-02-08T01:00:53.641Z,-6.28
2023-02-08T01:03:21.857Z,-6.19
2023-02-08T01:05:48.674Z,-6.21
2023-02-08T01:08:15.181Z,-6.32
2023-02-08T01:10:42.706Z,-6.36
2023-02-08T01:13:09.828Z,-6.42
2023-02-08T01:15:36.729Z,-6.44
2023-02-08T01:18:03.684Z,-6.41
2023-02-08T01:20:30.319Z,-6.50
2023-02-08T01:22:56.993Z,-6.49
2023-02-08T01:25:23.561Z,-6.57
2023-02-08T01:27:50.029Z,-6.49
2023-02-08T01:30:17.521Z,-6.52
2023-02-08T01:32:44.034Z,-6.52
2023-02-08T01:35:10.504Z,-6.47
2023-02-08T01:37:37.400Z,-6.45
2023-02-08T01:40:04.307Z,-6.39
2023-02-08T01:42:30.850Z,-6.38
2023-02-08T01:45:15.690Z,-6.24
2023-02-08T01:47:45.253Z,-6.32
2023-02-08T01:50:13.411Z,-6.38
2023-02-08T01:52:43.563Z,-6.29
2023-02-08T01:55:20.542Z,-6.29
2023-02-08T01:57:52.335Z,-6.33
2023-02-08T02:00:22.304Z,-6.27
2023-02-08T02:02:55.856Z,-6.32
2023-02-08T02:05:27.883Z,-6.42
2023-02-08T02:07:57.373Z,-6.39
2023-02-08T02:10:33.043Z,-6.46
2023-02-08T02:13:09.308Z,-6.32
2023-02-08T02:15:36.079Z,-6.39
2023-02-08T02:18:05.765Z,-6.41
2023-02-08T02:20:47.667Z,-6.28
2023-02-08T02:23:17.083Z,-6.33
2023-02-08T02:26:05.406Z,-6.39
2023-02-08T02:29:02.856Z,-6.37
2023-02-08T02:31:47.728Z,-6.49
2023-02-08T02:34:26.244Z,-6.57
2023-02-08T02:37:23.834Z,-6.57
2023-02-08T02:40:12.151Z,-6.64
2023-02-08T02:43:15.184Z,-6.69
2023-02-08T02:46:02.906Z,-6.76
2023-02-08T02:48:47.645Z,-6.78
2023-02-08T02:51:44.180Z,-6.67
2023-02-08T02:54:19.553Z,-6.69
2023-02-08T02:56:50.816Z,-6.70
2023-02-08T02:59:18.898Z,-6.65
2023-02-08T03:01:47.311Z,-6.59
2023-02-08T03:04:36.622Z,-6.52
2023-02-08T03:07:26.278Z,-6.61
2023-02-08T03:10:30.272Z,-6.60
2023-02-08T03:13:18.803Z,-6.61
2023-02-08T03:16:06.641Z,-6.56
2023-02-08T03:19:21.550Z,-6.43
2023-02-08T03:21:57.132Z,-6.43
2023-02-08T03:24:42.396Z,-6.53
2023-02-08T03:27:31.969Z,-6.74
2023-02-08T03:30:01.368Z,-6.73
2023-02-08T03:32:51.784Z,-6.80
2023-02-08T03:35:34.575Z,-6.83
2023-02-08T03:38:15.779Z,-6.69
2023-02-08T03:40:45.569Z,-6.76
2023-02-08T03:43:17.977Z,-6.69
2023-02-08T03:45:55.463Z,-6.80
2023-02-08T03:48:25.244Z,-6.77
2023-02-08T03:50:54.928Z,-6.85
2023-02-08T03:53:23.527Z,-6.73
2023-02-08T03:55:55.989Z,-6.81
2023-02-08T03:58:28.258Z,-6.83
2023-02-08T04:00:59.159Z,-6.73
2023-02-08T04:03:31.367Z,-6.67
2023-02-08T04:05:58.244Z,-6.75
2023-02-08T04:08:25.701Z,-6.77
2023-02-08T04:10:52.434Z,-6.88
2023-02-08T04:13:18.873Z,-7.02
2023-02-08T04:15:45.374Z,-6.84
2023-02-08T04:18:11.816Z,-6.96
2023-02-08T04:20:38.499Z,-6.99
2023-02-08T04:23:05.047Z,-6.92
2023-02-08T04:25:31.492Z,-6.90
2023-02-08T04:27:57.996Z,-7.00
2023-02-08T04:30:24.417Z,-7.04
2023-02-08T04:32:50.921Z,-7.02
2023-02-08T04:35:17.446Z,-6.89
2023-02-08T04:37:43.875Z,-6.71
2023-02-08T04:40:11.091Z,-6.68
2023-02-08T04:42:37.533Z,-6.59
2023-02-08T04:45:04.206Z,-6.49
2023-02-08T04:47:30.724Z,-6.50
2023-02-08T04:49:57.137Z,-6.45
2023-02-08T04:52:23.552Z,-6.36
2023-02-08T04:54:49.974Z,-6.35
2023-02-08T04:57:16.520Z,-6.50
2023-02-08T04:59:42.935Z,-6.44
2023-02-08T05:02:09.777Z,-6.52
2023-02-08T05:04:36.231Z,-6.56
2023-02-08T05:07:02.796Z,-6.62
2023-02-08T05:09:29.532Z,-6.65
2023-02-08T05:11:55.996Z,-6.56
2023-02-08T05:14:22.458Z,-6.69
2023-02-08T05:16:48.930Z,-6.70
2023-02-08T05:19:15.385Z,-6.57
2023-02-08T05:21:41.830Z,-6.49
2023-02-08T05:24:12.438Z,-6.62
2023-02-08T05:26:40.230Z,-6.40
2023-02-08T05:29:08.060Z,-6.43
2023-02-08T05:31:34.988Z,-6.52
2023-02-08T05:34:01.722Z,-6.36
2023-02-08T05:36:28.327Z,-6.25
2023-02-08T05:38:54.790Z,-6.30
2023-02-08T05:41:21.276Z,-6.44
2023-02-08T05:43:47.787Z,-6.44
2023-02-08T05:46:14.882Z,-6.41
2023-02-08T05:48:41.579Z,-6.51
2023-02-08T05:51:08.116Z,-6.48
2023-02-08T05:53:34.702Z,-6.56
2023-02-08T05:56:01.166Z,-6.48
2023-02-08T05:58:28.259Z,-6.58
2023-02-08T06:00:54.824Z,-6.25
2023-02-08T06:03:23.728Z,-6.25
2023-02-08T06:05:50.480Z,-6.27
2023-02-08T06:08:17.041Z,-6.21
2023-02-08T06:10:43.579Z,-6.26
2023-02-08T06:13:10.217Z,-6.15
2023-02-08T06:15:36.656Z,-6.13
2023-02-08T06:18:03.375Z,-6.08
2023-02-08T06:20:29.804Z,-6.14
2023-02-08T06:22:56.399Z,-6.04
2023-02-08T06:25:22.844Z,-6.20
2023-02-08T06:27:49.462Z,-6.14
2023-02-08T06:30:16.289Z,-6.11
2023-02-08T06:32:42.755Z,-6.18
2023-02-08T06:35:09.569Z,-6.10
2023-02-08T06:37:36.170Z,-6.06
2023-02-08T06:40:03.697Z,-6.07
2023-02-08T06:42:30.290Z,-6.07
2023-02-08T06:44:57.998Z,-6.11
2023-02-08T06:47:26.196Z,-6.00
2023-02-08T06:49:53.049Z,-6.12
2023-02-08T06:52:20.001Z,-6.05
2023-02-08T06:54:46.596Z,-5.95
2023-02-08T06:57:13.324Z,-5.98
2023-02-08T06:59:41.062Z,-5.93
2023-02-08T07:02:15.904Z,-5.87
2023-02-08T07:04:42.559Z,-6.06
2023-02-08T07:07:12.932Z,-6.08
2023-02-08T07:09:39.743Z,-5.91
2023-02-08T07:12:06.757Z,-5.89
2023-02-08T07:14:35.650Z,-5.85
2023-02-08T07:17:02.637Z,-5.87
2023-02-08T07:19:29.640Z,-5.97
2023-02-08T07:21:56.590Z,-5.84
2023-02-08T07:24:23.861Z,-5.87
2023-02-08T07:26:50.283Z,-5.87
2023-02-08T07:29:16.717Z,-5.79
2023-02-08T07:31:43.225Z,-5.81
2023-02-08T07:34:09.684Z,-5.70
2023-02-08T07:36:36.114Z,-5.73
2023-02-08T07:39:02.856Z,-5.67
2023-02-08T07:41:29.401Z,-5.69
2023-02-08T07:43:55.838Z,-5.62
2023-02-08T07:46:22.518Z,-5.64
2023-02-08T07:48:52.757Z,-5.72
2023-02-08T07:51:19.350Z,-5.58
2023-02-08T07:53:46.072Z,-5.63
2023-02-08T07:56:12.559Z,-5.54
2023-02-08T07:58:39.657Z,-5.41
2023-02-08T08:01:20.993Z,-5.45
2023-02-08T08:03:49.170Z,-5.31
2023-02-08T08:06:15.630Z,-5.22
2023-02-08T08:08:43.203Z,-5.19
2023-02-08T08:11:09.652Z,-5.18
2023-02-08T08:13:36.070Z,-5.18
2023-02-08T08:16:02.559Z,-5.19
2023-02-08T08:18:29.263Z,-5.05
2023-02-08T08:20:55.725Z,-5.00
2023-02-08T08:23:22.424Z,-4.74
2023-02-08T08:25:50.197Z,-4.78
2023-02-08T08:28:16.790Z,-4.77
2023-02-08T08:30:44.787Z,-4.94
2023-02-08T08:33:12.106Z,-4.68
2023-02-08T08:35:38.574Z,-4.77
2023-02-08T08:38:05.007Z,-4.69
2023-02-08T08:40:31.819Z,-4.73
2023-02-08T08:42:58.257Z,-4.60
2023-02-08T08:45:24.701Z,-4.48
2023-02-08T08:47:51.133Z,-4.43
2023-02-08T08:50:17.610Z,-4.31
2023-02-08T08:52:44.094Z,-4.15
2023-02-08T08:55:10.615Z,-4.20
2023-02-08T08:57:37.049Z,-4.07
2023-02-08T09:00:04.732Z,-3.92
2023-02-08T09:02:31.165Z,-3.81
2023-02-08T09:05:00.214Z,-3.75
2023-02-08T09:07:26.783Z,-3.82
2023-02-08T09:09:53.180Z,-3.63
2023-02-08T09:12:19.611Z,-3.61
2023-02-08T09:14:46.059Z,-3.46
2023-02-08T09:17:12.592Z,-3.35
2023-02-08T09:19:39.187Z,-3.47
2023-02-08T09:22:08.790Z,-3.40
2023-02-08T09:24:35.488Z,-3.29
2023-02-08T09:27:01.945Z,-3.30
2023-02-08T09:29:30.042Z,-3.22
2023-02-08T09:31:56.855Z,-3.13
2023-02-08T09:34:23.624Z,-2.98
2023-02-08T09:36:50.141Z,-2.99
2023-02-08T09:39:22.931Z,-2.95
2023-02-08T09:41:55.303Z,-3.01
2023-02-08T09:44:33.701Z,-3.00
2023-02-08T09:47:31.207Z,-2.71
2023-02-08T09:50:04.857Z,-2.51
2023-02-08T09:52:40.464Z,-2.47
2023-02-08T09:55:25.299Z,-2.32
2023-02-08T09:57:54.773Z,-2.36
2023-02-08T10:00:31.902Z,-2.47
2023-02-08T10:03:01.600Z,-2.64
2023-02-08T10:05:30.047Z,-2.63
2023-02-08T10:07:58.477Z,-2.57
2023-02-08T10:10:43.242Z,-2.55
2023-02-08T10:13:41.671Z,-2.26
2023-02-08T10:16:23.655Z,-2.29
2023-02-08T10:19:16.094Z,-2.36
2023-02-08T10:21:52.217Z,-2.30
2023-02-08T10:24:37.807Z,-2.19
2023-02-08T10:27:16.149Z,-2.17
2023-02-08T10:29:51.600Z,-1.83
2023-02-08T10:32:38.774Z,-2.00
2023-02-08T10:35:14.397Z,-1.63
2023-02-08T10:37:43.430Z,-1.45
2023-02-08T10:40:20.896Z,-1.56
2023-02-08T10:43:07.684Z,-1.37
2023-02-08T10:46:24.754Z,-1.22
2023-02-08T10:49:20.331Z,-1.28
2023-02-08T10:51:47.508Z,-1.41
2023-02-08T10:54:15.449Z,-1.38
2023-02-08T10:56:50.953Z,-1.28
2023-02-08T10:59:21.629Z,-1.36
2023-02-08T11:01:49.434Z,-1.28
2023-02-08T11:04:16.827Z,-1.20
2023-02-08T11:06:44.924Z,-1.21
2023-02-08T11:09:29.764Z,-1.28
2023-02-08T11:11:59.457Z,-1.22
2023-02-08T11:14:47.027Z,-1.07
2023-02-08T11:17:32.764Z,-1.18
2023-02-08T11:20:00.266Z,-1.07
2023-02-08T11:22:31.158Z,-1.12
2023-02-08T11:25:05.477Z,-0.95
2023-02-08T11:27:34.179Z,-1.02
2023-02-08T11:30:21.032Z,-0.96
2023-02-08T11:32:49.934Z,-0.94
2023-02-08T11:35:24.054Z,-1.01
2023-02-08T11:37:56.554Z,-1.16
2023-02-08T11:40:42.830Z,-0.86
2023-02-08T11:43:21.598Z,-0.89
2023-02-08T11:45:48.654Z,-1.00
2023-02-08T11:48:33.080Z,-0.63
2023-02-08T11:51:02.290Z,-0.66
2023-02-08T11:53:39.649Z,-0.79
2023-02-08T11:56:19.255Z,-0.83
2023-02-08T11:59:14.602Z,-0.97
2023-02-08T12:01:42.725Z,-1.07
2023-02-08T12:04:17.558Z,-1.20
2023-02-08T12:07:05.539Z,-1.04
2023-02-08T12:10:13.124Z,-1.07
2023-02-08T12:12:49.370Z,-0.98
2023-02-08T12:15:57.037Z,-1.08
2023-02-08T12:18:50.310Z,-1.17
2023-02-08T12:21:25.134Z,-1.08
2023-02-08T12:24:35.954Z,-1.10
2023-02-08T12:27:19.265Z,-1.24
2023-02-08T12:29:55.810Z,-1.39
2023-02-08T12:32:37.378Z,-1.38
2023-02-08T12:35:33.108Z,-1.44
2023-02-08T12:38:46.013Z,-1.52
2023-02-08T12:41:51.562Z,-1.45
2023-02-08T12:44:36.398Z,-1.41
2023-02-08T12:47:37.187Z,-1.31
2023-02-08T12:50:42.306Z,-1.41
2023-02-08T12:53:26.019Z,-1.51
2023-02-08T12:55:55.235Z,-1.44
2023-02-08T12:58:38.730Z,-1.18
2023-02-08T13:01:17.895Z,-1.21
2023-02-08T13:04:15.316Z,-1.41
2023-02-08T13:06:44.826Z,-1.61
2023-02-08T13:09:35.773Z,-1.56
2023-02-08T13:12:31.631Z,-1.61
2023-02-08T13:15:11.924Z,-1.62
2023-02-08T13:17:51.987Z,-1.66
2023-02-08T13:20:31.017Z,-1.71
2023-02-08T13:23:03.614Z,-1.70
2023-02-08T13:25:34.271Z,-1.75
2023-02-08T13:28:02.849Z,-1.85
2023-02-08T13:30:30.039Z,-1.70
2023-02-08T13:32:57.704Z,-1.60
2023-02-08T13:35:28.340Z,-1.58
2023-02-08T13:38:04.336Z,-1.68
2023-02-08T13:40:37.643Z,-1.71
2023-02-08T13:43:33.968Z,-1.79
2023-02-08T13:46:02.423Z,-1.53
2023-02-08T13:48:43.168Z,-1.67
2023-02-08T13:51:32.239Z,-1.57
2023-02-08T13:53:58.687Z,-1.49
2023-02-08T13:56:37.351Z,-1.43
2023-02-08T13:59:05.888Z,-1.44
2023-02-08T14:01:36.196Z,-1.47
2023-02-08T14:04:08.707Z,-1.41
2023-02-08T14:06:44.157Z,-1.54
2023-02-08T14:09:44.004Z,-1.52
2023-02-08T14:12:50.243Z,-1.60
2023-02-08T14:15:16.647Z,-1.57
2023-02-08T14:17:49.607Z,-1.49
2023-02-08T14:20:29.563Z,-1.44
2023-02-08T14:23:00.086Z,-1.43
2023-02-08T14:25:38.339Z,-1.44
2023-02-08T14:28:05.797Z,-1.51
2023-02-08T14:30:36.066Z,-1.38
2023-02-08T14:33:08.533Z,-1.39
2023-02-08T14:35:39.188Z,-1.46
2023-02-08T14:38:24.104Z,-1.50
2023-02-08T14:41:01.182Z,-1.39
2023-02-08T14:43:39.209Z,-1.43
2023-02-08T14:46:37.301Z,-1.34
2023-02-08T14:49:37.411Z,-1.43
2023-02-08T14:52:10.722Z,-1.26
2023-02-08T14:54:46.825Z,-1.29
2023-02-08T14:57:35.732Z,-1.16
2023-02-08T15:00:07.120Z,-1.18
2023-02-08T15:02:35.891Z,-1.29
2023-02-08T15:05:09.737Z,-1.22
2023-02-08T15:07:50.014Z,-1.28
2023-02-08T15:10:18.736Z,-1.26
2023-02-08T15:12:50.714Z,-1.33
2023-02-08T15:15:24.724Z,-1.27
2023-02-08T15:17:53.351Z,-1.19
2023-02-08T15:20:31.728Z,-1.15
2023-02-08T15:23:19.332Z,-1.40
2023-02-08T15:26:01.815Z,-1.48
2023-02-08T15:28:31.669Z,-1.40
2023-02-08T15:31:09.727Z,-1.39
2023-02-08T15:33:42.465Z,-1.41
2023-02-08T15:36:21.131Z,-1.41
2023-02-08T15:38:48.211Z,-1.49
2023-02-08T15:41:24.577Z,-1.41
2023-02-08T15:43:51.152Z,-1.49
2023-02-08T15:46:22.316Z,-1.36
2023-02-08T15:49:15.228Z,-1.40
2023-02-08T15:51:42.984Z,-1.55
2023-02-08T15:54:16.811Z,-1.53
2023-02-08T15:56:49.860Z,-1.60
2023-02-08T15:59:22.918Z,-1.67
2023-02-08T16:01:50.300Z,-1.61
2023-02-08T16:04:16.975Z,-1.71
2023-02-08T16:06:56.620Z,-1.59
2023-02-08T16:09:27.450Z,-1.67
2023-02-08T16:11:58.061Z,-1.61
2023-02-08T16:14:29.014Z,-1.65
2023-02-08T16:16:57.912Z,-1.78
2023-02-08T16:19:30.669Z,-1.79
2023-02-08T16:22:20.836Z,-1.87
2023-02-08T16:24:47.736Z,-1.96
2023-02-08T16:27:26.387Z,-1.91
2023-02-08T16:29:53.693Z,-1.94
2023-02-08T16:32:33.289Z,-1.88
2023-02-08T16:35:01.291Z,-1.99
2023-02-08T16:37:35.005Z,-1.96
2023-02-08T16:40:04.393Z,-2.12
2023-02-08T16:42:39.676Z,-2.04
2023-02-08T16:45:13.743Z,-2.04
2023-02-08T16:47:52.590Z,-1.94
2023-02-08T16:50:24.543Z,-2.05
2023-02-08T16:52:55.258Z,-2.06
2023-02-08T16:55:25.185Z,-2.10
2023-02-08T16:57:54.018Z,-2.16
2023-02-08T17:00:24.076Z,-1.99
2023-02-08T17:02:51.379Z,-1.99
2023-02-08T17:05:19.245Z,-2.17
2023-02-08T17:07:46.135Z,-2.23
2023-02-08T17:10:28.329Z,-2.15
2023-02-08T17:13:09.956Z,-2.17
2023-02-08T17:15:43.500Z,-2.43
2023-02-08T17:18:12.426Z,-2.42
2023-02-08T17:20:38.924Z,-2.21
2023-02-08T17:23:05.961Z,-2.22
2023-02-08T17:25:34.104Z,-2.21
2023-02-08T17:28:06.819Z,-2.31
2023-02-08T17:30:36.501Z,-2.36
2023-02-08T17:33:11.471Z,-2.44
2023-02-08T17:35:38.248Z,-2.47
2023-02-08T17:38:05.667Z,-2.54
2023-02-08T17:40:35.197Z,-2.45
2023-02-08T17:43:02.718Z,-2.23
2023-02-08T17:45:29.610Z,-2.44
2023-02-08T17:47:59.998Z,-2.50
2023-02-08T17:50:26.613Z,-2.45
2023-02-08T17:52:53.102Z,-2.49
2023-02-08T17:55:19.607Z,-2.45
2023-02-08T17:57:46.688Z,-2.72
2023-02-08T18:00:18.896Z,-2.42
2023-02-08T18:02:47.395Z,-2.39
2023-02-08T18:05:15.223Z,-2.42
2023-02-08T18:07:41.929Z,-2.56
2023-02-08T18:10:11.391Z,-2.60
2023-02-08T18:12:38.107Z,-2.52
2023-02-08T18:15:07.850Z,-2.49
2023-02-08T18:17:34.676Z,-2.58
2023-02-08T18:20:01.567Z,-2.73
2023-02-08T18:22:28.534Z,-2.45
2023-02-08T18:24:55.316Z,-2.72
2023-02-08T18:27:25.069Z,-2.82
2023-02-08T18:29:51.584Z,-2.65
2023-02-08T18:32:20.226Z,-2.60
2023-02-08T18:34:46.767Z,-2.59
2023-02-08T18:37:13.165Z,-2.65
2023-02-08T18:39:39.645Z,-2.72
2023-02-08T18:42:06.499Z,-2.54
2023-02-08T18:44:36.685Z,-2.74
2023-02-08T18:47:03.826Z,-2.88
2023-02-08T18:49:30.450Z,-2.89
2023-02-08T18:51:57.068Z,-2.81
2023-02-08T18:54:23.577Z,-3.01
2023-02-08T18:56:53.969Z,-2.91
2023-02-08T18:59:20.449Z,-2.85
2023-02-08T19:01:46.938Z,-2.87
2023-02-08T19:04:13.366Z,-2.89
2023-02-08T19:06:39.830Z,-2.89
2023-02-08T19:09:07.531Z,-2.74
2023-02-08T19:11:36.585Z,-2.81
2023-02-08T19:14:06.256Z,-2.90
2023-02-08T19:16:34.719Z,-3.06
2023-02-08T19:19:01.797Z,-3.15
2023-02-08T19:21:29.274Z,-3.26
2023-02-08T19:23:59.797Z,-3.34
2023-02-08T19:26:29.129Z,-3.30
2023-02-08T19:28:59.128Z,-3.26
2023-02-08T19:31:27.903Z,-3.17
2023-02-08T19:33:58.593Z,-3.32
2023-02-08T19:36:31.674Z,-3.36
2023-02-08T19:38:59.437Z,-3.38
2023-02-08T19:41:30.834Z,-3.26
2023-02-08T19:43:57.250Z,-3.44
2023-02-08T19:46:26.562Z,-3.27
2023-02-08T19:48:56.082Z,-3.23
2023-02-08T19:51:22.687Z,-3.23
2023-02-08T19:53:49.318Z,-3.28
2023-02-08T19:56:17.288Z,-3.47
2023-02-08T19:58:44.367Z,-3.41
2023-02-08T20:01:19.533Z,-3.50
2023-02-08T20:03:47.391Z,-3.62
2023-02-08T20:06:18.323Z,-3.60
2023-02-08T20:08:45.351Z,-3.66
2023-02-08T20:11:33.791Z,-3.75
2023-02-08T20:14:01.219Z,-3.83
2023-02-08T20:16:31.562Z,-3.83
2023-02-08T20:18:58.701Z,-3.83
2023-02-08T20:21:25.116Z,-4.03
2023-02-08T20:23:52.216Z,-3.99
2023-02-08T20:26:27.219Z,-4.03
2023-02-08T20:28:58.555Z,-4.11
2023-02-08T20:31:28.487Z,-4.13
2023-02-08T20:33:59.616Z,-4.23
2023-02-08T20:36:28.530Z,-4.25
2023-02-08T20:38:56.782Z,-4.31
2023-02-08T20:41:25.455Z,-4.25
2023-02-08T20:43:53.154Z,-4.50
2023-02-08T20:46:24.952Z,-4.33
2023-02-08T20:48:52.890Z,-4.34
2023-02-08T20:51:21.655Z,-4.44
2023-02-08T20:53:49.584Z,-4.26
2023-02-08T20:56:19.484Z,-4.25
2023-02-08T20:58:46.126Z,-4.34
2023-02-08T21:01:15.896Z,-4.40
2023-02-08T21:03:42.940Z,-4.36
2023-02-08T21:06:15.864Z,-4.52
2023-02-08T21:08:42.938Z,-4.35
2023-02-08T21:11:10.201Z,-4.51
2023-02-08T21:13:37.145Z,-4.45
2023-02-08T21:16:08.279Z,-4.37
2023-02-08T21:18:35.048Z,-4.50
2023-02-08T21:21:01.752Z,-4.51
2023-02-08T21:23:28.672Z,-4.56
2023-02-08T21:25:55.158Z,-4.66
2023-02-08T21:28:21.660Z,-4.65
2023-02-08T21:31:04.408Z,-4.59
2023-02-08T21:33:31.112Z,-4.75
2023-02-08T21:36:05.228Z,-4.99
2023-02-08T21:38:31.814Z,-4.99
2023-02-08T21:40:58.317Z,-5.13
2023-02-08T21:43:24.915Z,-5.17
2023-02-08T21:45:51.354Z,-5.17
2023-02-08T21:48:17.789Z,-5.24
2023-02-08T21:51:02.945Z,-5.27
2023-02-08T21:53:52.304Z,-5.32
2023-02-08T21:56:18.890Z,-5.29
2023-02-08T21:58:45.284Z,-5.37
2023-02-08T22:01:11.793Z,-5.53
2023-02-08T22:03:38.326Z,-5.63
2023-02-08T22:06:23.412Z,-5.49
2023-02-08T22:08:49.910Z,-5.58
2023-02-08T22:11:16.378Z,-5.65
2023-02-08T22:13:43.870Z,-5.82
2023-02-08T22:16:11.077Z,-5.72
2023-02-08T22:18:41.227Z,-5.72
2023-02-08T22:21:08.388Z,-5.97
2023-02-08T22:23:34.905Z,-5.85
2023-02-08T22:26:07.349Z,-5.82
2023-02-08T22:28:33.940Z,-6.01
2023-02-08T22:31:01.562Z,-5.95
2023-02-08T22:33:28.852Z,-5.88
2023-02-08T22:35:55.957Z,-6.06
2023-02-08T22:38:23.501Z,-5.95
2023-02-08T22:40:50.168Z,-5.98
2023-02-08T22:43:16.993Z,-6.00
2023-02-08T22:45:43.519Z,-5.98
2023-02-08T22:48:10.503Z,-6.05
2023-02-08T22:50:38.087Z,-5.91
2023-02-08T22:53:04.516Z,-5.90
2023-02-08T22:55:30.976Z,-5.68
2023-02-08T22:57:57.429Z,-5.53
2023-02-08T23:00:23.979Z,-5.41
2023-02-08T23:02:50.438Z,-5.26
2023-02-08T23:05:16.889Z,-5.28
2023-02-08T23:07:43.402Z,-5.35
2023-02-08T23:10:10.801Z,-5.45
2023-02-08T23:12:37.240Z,-5.48
2023-02-08T23:15:04.650Z,-5.53
2023-02-08T23:17:31.062Z,-5.56
2023-02-08T23:19:57.505Z,-5.53
2023-02-08T23:22:23.959Z,-5.44
2023-02-08T23:24:50.364Z,-5.30
2023-02-08T23:27:16.828Z,-5.11
2023-02-08T23:29:43.218Z,-5.22
2023-02-08T23:32:09.729Z,-5.24
2023-02-08T23:34:36.235Z,-5.22
2023-02-08T23:37:02.664Z,-5.43
2023-02-08T23:39:29.072Z,-5.34
2023-02-08T23:41:56.086Z,-5.35
2023-02-08T23:44:23.462Z,-5.32
2023-02-08T23:46:49.978Z,-5.59
2023-02-08T23:49:16.505Z,-5.52
2023-02-08T23:51:42.946Z,-5.58
2023-02-08T23:54:09.350Z,-5.60
2023-02-08T23:56:36.051Z,-5.50
2023-02-08T23:59:02.549Z,-5.64
